Time;durP1;ratioP1;P1;durP2;ratioP2;P2;SDS_P1;SDS_P2;PMS_P1;PMS_P2;Temp;Humidity;BMP_temperature;BMP_pressure;BME280_temperature;BME280_humidity;BME280_pressure;Samples;Min_cycle;Max_cycle;Signal;HPM_P1;HPM_P2
2022/06/12 07:31:24;;;;;;;4.00;2.90;;;;;;;39.48;50.96;99421.70;104913;1285;111385;-73
2022/06/12 07:33:55;;;;;;;9.00;3.30;;;;;;;39.34;50.35;99424.35;104744;1287;99331;-71
2022/06/12 07:36:24;;;;;;;;;;;;;;;40.20;49.21;99417.03;104907;1287;107814;-72
2022/06/12 07:38:55;;;;;;;7.60;3.10;;;;;;;40.14;48.71;99418.49;104837;1287;96724;-72
2022/06/12 07:41:48;;;;;;;4.80;2.70;;;;;;;40.61;48.08;99416.89;104842;1287;99277;-73
2022/06/12 07:44:23;;;;;;;4.90;2.40;;;;;;;40.04;47.79;99418.45;104856;1287;112805;-73
2022/06/12 07:46:56;;;;;;;6.10;2.50;;;;;;;39.34;47.35;99423.02;104785;1287;99933;-74
2022/06/12 07:49:27;;;;;;;5.80;2.40;;;;;;;38.79;46.58;99420.23;104757;1287;107795;-73
2022/06/12 07:51:58;;;;;;;5.60;2.30;;;;;;;38.44;45.42;99420.98;104781;1287;99239;-73
2022/06/12 07:54:27;;;;;;;3.90;2.20;;;;;;;37.98;45.05;99419.10;104850;1287;99352;-75
2022/06/12 07:56:55;;;;;;;5.90;2.10;;;;;;;38.85;43.56;99417.70;104957;1287;112670;-75
2022/06/12 07:59:29;;;;;;;3.50;1.80;;;;;;;39.56;43.01;99417.10;105040;1287;99255;-74
2022/06/12 08:01:57;;;;;;;4.50;1.80;;;;;;;40.11;42.61;99417.98;104963;1287;107733;-74
2022/06/12 08:04:25;;;;;;;4.60;2.00;;;;;;;40.80;42.32;99414.14;104961;1287;99293;-73
2022/06/12 08:06:53;;;;;;;3.50;1.80;;;;;;;41.27;41.74;99410.87;105029;1287;99330;-73
2022/06/12 08:09:24;;;;;;;3.70;2.10;;;;;;;40.90;41.77;99417.15;104895;1287;112823;-74
2022/06/12 08:11:52;;;;;;;;;;;;;;;41.01;40.76;99413.66;104838;1287;97961;-72
2022/06/12 08:14:22;;;;;;;3.70;1.90;;;;;;;41.11;40.46;99409.55;104837;1287;107734;-70
2022/06/12 08:16:53;;;;;;;3.90;2.00;;;;;;;41.03;40.32;99407.63;104721;1287;99336;-71
2022/06/12 08:22:11;;;;;;;2.70;1.90;;;;;;;41.26;38.72;99406.36;104856;1287;112789;-71
2022/06/12 08:24:39;;;;;;;5.80;1.80;;;;;;;41.45;38.68;99407.28;104775;1287;99231;-71
2022/06/12 08:27:10;;;;;;;3.40;2.00;;;;;;;41.73;38.03;99405.39;104819;1287;108935;-71
2022/06/12 08:29:41;;;;;;;3.30;2.00;;;;;;;41.89;37.73;99404.14;104909;1287;99371;-70
2022/06/12 08:32:19;;;;;;;6.40;2.30;;;;;;;41.80;37.22;99403.13;104793;1287;99270;-74
2022/06/12 08:35:01;;;;;;;2.40;1.60;;;;;;;42.01;36.67;99405.58;104765;1287;112770;-74
2022/06/12 08:37:33;;;;;;;2.80;1.80;;;;;;;41.96;36.23;99407.56;104754;1288;99236;-71
2022/06/12 08:40:22;;;;;;;3.30;2.00;;;;;;;42.04;35.46;99406.86;104726;1287;107724;-71
2022/06/12 08:43:07;;;;;;;3.40;2.10;;;;;;;42.15;35.33;99404.02;104681;1287;100391;-71
2022/06/12 08:45:51;;;;;;;2.70;1.80;;;;;;;42.35;34.55;99401.64;104695;1287;99239;-71
2022/06/12 08:48:30;;;;;;;6.20;1.80;;;;;;;42.40;34.22;99401.71;104654;1287;112847;-72
2022/06/12 08:51:09;;;;;;;3.20;2.00;;;;;;;42.19;33.83;99397.00;104805;1287;98709;-73
2022/06/12 08:54:04;;;;;;;5.30;2.10;;;;;;;41.98;33.28;99393.63;104887;1287;108865;-74
2022/06/12 08:56:40;;;;;;;2.30;1.70;;;;;;;42.04;32.96;99394.84;104835;1287;99283;-73
2022/06/12 08:59:17;;;;;;;3.80;2.20;;;;;;;42.03;32.40;99392.55;104889;1287;99273;-72
2022/06/12 09:01:46;;;;;;;1.90;1.70;;;;;;;41.69;32.33;99393.73;104816;1287;112812;-70
2022/06/12 09:04:18;;;;;;;2.20;1.50;;;;;;;41.38;31.91;99396.02;104897;1287;99376;-73
2022/06/12 09:07:14;;;;;;;3.60;2.10;;;;;;;40.75;31.94;99390.96;104845;1287;107976;-76
2022/06/12 09:09:52;;;;;;;3.00;1.90;;;;;;;40.48;31.30;99386.17;104908;1287;99293;-75
2022/06/12 09:12:43;;;;;;;4.70;1.80;;;;;;;40.06;30.89;99382.39;104832;1287;99243;-75
2022/06/12 09:15:32;;;;;;;4.20;1.80;;;;;;;39.23;30.68;99385.15;104796;1287;112829;-71
2022/06/12 09:18:28;;;;;;;4.80;2.10;;;;;;;38.17;30.36;99383.55;104868;1287;99128;-69
2022/06/12 09:21:12;;;;;;;3.30;2.20;;;;;;;36.90;30.07;99379.39;104667;1288;107817;-73
2022/06/12 09:24:00;;;;;;;3.30;2.20;;;;;;;36.64;29.74;99373.33;104756;1287;99394;-72
2022/06/12 09:27:06;;;;;;;3.30;2.10;;;;;;;36.09;29.66;99372.08;104842;1286;99349;-72
2022/06/12 09:30:20;;;;;;;5.40;2.30;;;;;;;35.44;29.29;99369.51;104843;1287;112883;-71
2022/06/12 09:33:30;;;;;;;13.70;2.30;;;;;;;35.47;29.58;99369.76;104633;1287;99916;-75
2022/06/12 09:36:01;;;;;;;3.80;2.10;;;;;;;35.52;29.33;99363.60;104592;1290;107859;-74
2022/06/12 09:38:44;;;;;;;6.50;2.40;;;;;;;35.62;29.16;99359.20;104843;1287;99253;-74
2022/06/12 09:41:22;;;;;;;7.20;2.20;;;;;;;35.80;29.17;99358.21;104781;1287;99219;-73
2022/06/12 09:43:57;;;;;;;6.20;2.70;;;;;;;35.88;28.99;99355.96;104827;1287;112874;-73
2022/06/12 09:46:36;;;;;;;5.00;2.10;;;;;;;35.65;29.22;99353.46;104924;1287;97201;-75
2022/06/12 09:49:26;;;;;;;7.10;2.50;;;;;;;35.01;29.03;99357.30;104814;1287;108339;-73
2022/06/12 09:52:22;;;;;;;4.10;2.30;;;;;;;34.48;28.62;99356.35;104747;1287;99348;-76
2022/06/12 09:54:56;;;;;;;3.20;2.10;;;;;;;34.51;28.82;99352.41;104755;1287;99345;-77
2022/06/12 09:57:35;;;;;;;4.20;2.00;;;;;;;34.47;28.60;99353.93;104758;1287;112464;-72
2022/06/12 10:00:26;;;;;;;3.70;2.10;;;;;;;34.50;28.70;99347.10;104782;1287;98872;-72
2022/06/12 10:03:00;;;;;;;5.60;2.00;;;;;;;34.46;28.74;99333.86;104744;1287;107792;-70
2022/06/12 10:05:54;;;;;;;5.80;2.30;;;;;;;34.09;28.61;99336.38;104688;1287;100173;-71
2022/06/12 10:08:49;;;;;;;2.90;2.10;;;;;;;33.53;28.54;99334.96;104889;1287;99857;-70
2022/06/12 10:11:29;;;;;;;5.90;2.40;;;;;;;33.08;28.48;99333.92;104824;1287;112724;-71
2022/06/12 10:14:08;;;;;;;12.30;3.50;;;;;;;32.69;28.55;99334.88;104717;1287;98992;-71
2022/06/12 10:17:03;;;;;;;20.00;5.10;;;;;;;32.22;28.51;99333.33;104701;1288;107635;-70
2022/06/12 10:19:55;;;;;;;15.20;4.60;;;;;;;31.77;28.64;99326.96;104844;1287;99789;-70
2022/06/12 10:22:43;;;;;;;12.50;4.00;;;;;;;31.46;28.58;99329.42;104810;1287;99386;-73
2022/06/12 10:25:23;;;;;;;25.20;6.80;;;;;;;31.16;28.94;99327.80;104890;1287;112762;-71
2022/06/12 10:27:55;;;;;;;17.20;4.70;;;;;;;30.95;28.69;99317.11;104806;1287;99362;-72
2022/06/12 10:30:27;;;;;;;15.50;3.60;;;;;;;30.76;28.83;99312.23;104667;1287;108484;-75
2022/06/12 10:33:12;;;;;;;5.30;2.50;;;;;;;30.59;28.84;99308.13;104674;1287;99279;-71
2022/06/12 10:35:59;;;;;;;8.80;2.00;;;;;;;30.42;29.01;99304.36;104754;1287;97359;-74
2022/06/12 10:38:36;;;;;;;4.20;1.90;;;;;;;30.30;29.22;99298.53;104911;1287;112776;-72
2022/06/12 10:41:08;;;;;;;5.70;1.90;;;;;;;30.10;29.06;99299.06;104902;1287;99361;-75
2022/06/12 10:43:49;;;;;;;2.20;1.80;;;;;;;29.95;29.03;99297.79;104919;1287;108349;-77
2022/06/12 10:46:33;;;;;;;4.10;2.40;;;;;;;29.73;28.93;99308.09;104762;1287;96791;-73
2022/06/12 10:49:17;;;;;;;4.60;2.10;;;;;;;29.60;29.19;99303.41;104898;1287;99260;-77
2022/06/12 10:51:47;;;;;;;6.20;2.00;;;;;;;29.47;28.98;99297.33;104737;1287;112756;-76
2022/06/12 10:54:20;;;;;;;22.90;11.80;;;;;;;29.11;29.21;99301.19;104783;1287;98267;-76
2022/06/12 10:57:27;;;;;;;37.00;25.40;;;;;;;28.82;29.65;99301.54;104742;1287;107763;-75
2022/06/12 11:00:12;;;;;;;11.60;5.20;;;;;;;28.72;29.70;99295.72;104690;1287;99134;-73
2022/06/12 11:02:58;;;;;;;10.40;3.10;;;;;;;28.63;30.10;99292.55;104504;1287;99514;-76
2022/06/12 11:05:45;;;;;;;5.50;2.40;;;;;;;28.58;30.15;99291.25;104628;1287;112826;-74
2022/06/12 11:08:47;;;;;;;4.50;2.50;;;;;;;28.55;29.88;99291.70;104716;1287;99252;-74
2022/06/12 11:11:25;;;;;;;10.10;1.90;;;;;;;28.51;30.00;99290.27;104712;1287;106746;-74
2022/06/12 11:14:30;;;;;;;9.40;1.80;;;;;;;28.41;30.01;99283.15;104715;1287;99401;-69
2022/06/12 11:17:06;;;;;;;5.60;1.80;;;;;;;28.29;30.20;99277.07;104882;1287;97330;-77
2022/06/12 11:20:05;;;;;;;5.30;1.70;;;;;;;28.17;30.45;99278.01;104741;1287;112714;-72
2022/06/12 11:23:03;;;;;;;20.80;2.20;;;;;;;28.13;30.32;99275.75;104762;1287;97034;-75
2022/06/12 11:26:17;;;;;;;10.10;4.80;;;;;;;28.06;30.74;99273.59;104723;1287;107810;-67
2022/06/12 11:29:00;;;;;;;8.80;4.50;;;;;;;27.97;30.42;99268.70;104782;1287;97894;-71
2022/06/12 11:31:51;;;;;;;12.40;4.90;;;;;;;27.88;30.74;99267.80;104654;1290;99273;-73
2022/06/12 11:34:31;;;;;;;23.10;11.20;;;;;;;27.85;30.70;99258.36;104671;1290;112017;-71
2022/06/12 11:37:28;;;;;;;8.20;4.10;;;;;;;27.80;30.73;99261.20;104592;1290;99788;-70
2022/06/12 11:40:13;;;;;;;7.00;2.90;;;;;;;27.71;30.82;99258.48;104258;1290;107815;-78
2022/06/12 11:43:06;;;;;;;10.40;3.80;;;;;;;27.67;31.08;99261.08;104598;1290;97392;-71
2022/06/12 11:46:24;;;;;;;8.20;2.60;;;;;;;27.62;31.20;99255.60;104632;1290;99397;-73
2022/06/12 11:49:15;;;;;;;7.70;3.40;;;;;;;27.58;31.31;99255.28;104866;1290;112851;-78
2022/06/12 11:51:56;;;;;;;19.40;9.40;;;;;;;27.56;31.29;99250.91;104680;1290;99294;-76
2022/06/12 11:54:43;;;;;;;13.10;6.50;;;;;;;27.55;31.45;99254.54;104742;1288;107358;-71
2022/06/12 11:57:25;;;;;;;5.90;2.40;;;;;;;27.52;31.45;99252.87;104627;1290;97839;-75
2022/06/12 12:00:14;;;;;;;3.00;1.80;;;;;;;27.47;31.49;99254.31;104648;1290;99254;-72
2022/06/12 12:02:45;;;;;;;8.50;2.30;;;;;;;27.48;31.59;99252.94;104627;1290;112844;-70
2022/06/12 12:05:50;;;;;;;5.80;1.60;;;;;;;27.49;31.55;99251.97;104550;1288;99233;-70
2022/06/12 12:08:42;;;;;;;22.30;13.00;;;;;;;27.44;31.72;99245.86;104615;1290;107721;-70
2022/06/12 12:11:20;;;;;;;12.10;6.20;;;;;;;27.43;31.62;99238.95;104566;1290;97771;-68
2022/06/12 12:13:55;;;;;;;23.90;16.30;;;;;;;27.46;31.78;99234.18;104635;1290;99336;-69
2022/06/12 12:16:43;;;;;;;5.30;3.00;;;;;;;27.48;31.70;99226.69;104680;1289;112592;-74
2022/06/12 12:19:40;;;;;;;4.50;2.50;;;;;;;27.46;31.82;99226.25;104608;1289;99233;-70
2022/06/12 12:22:35;;;;;;;3.30;2.20;;;;;;;27.43;31.94;99230.41;104501;1290;107755;-70
2022/06/12 12:25:36;;;;;;;2.20;1.90;;;;;;;27.42;32.04;99229.61;104696;1290;99357;-70
2022/06/12 12:28:37;;;;;;;9.70;2.70;;;;;;;27.38;32.07;99229.59;104711;1290;97956;-74
2022/06/12 12:31:15;;;;;;;13.60;6.20;;;;;;;27.35;31.95;99222.59;104721;1288;113502;-73
2022/06/12 12:33:48;;;;;;;12.20;5.80;;;;;;;27.29;32.14;99222.99;104844;1288;99306;-76
2022/06/12 12:42:37;;;;;;;3.40;2.10;;;;;;;27.12;32.25;99214.00;104854;1288;99900;-71
2022/06/12 12:45:22;;;;;;;6.00;2.50;;;;;;;27.07;32.31;99207.82;104867;1288;111795;-71
2022/06/12 12:48:15;;;;;;;3.70;2.20;;;;;;;27.03;32.38;99206.90;104764;1288;96845;-72
2022/06/12 12:50:57;;;;;;;4.00;1.90;;;;;;;27.01;32.43;99199.27;104805;1288;107825;-70
2022/06/12 12:53:35;;;;;;;4.90;1.90;;;;;;;27.02;32.37;99188.09;104835;1288;99371;-70
2022/06/12 12:56:14;;;;;;;4.30;1.90;;;;;;;26.99;32.51;99189.02;104748;1288;99296;-71
2022/06/12 12:59:10;;;;;;;3.80;1.90;;;;;;;26.92;32.53;99195.77;104668;1288;112035;-71
2022/06/12 13:01:47;;;;;;;3.90;1.80;;;;;;;26.89;32.69;99193.02;104734;1288;97659;-71
2022/06/12 13:04:24;;;;;;;3.70;1.80;;;;;;;26.86;32.77;99194.46;104689;1288;107001;-70
2022/06/12 13:06:56;;;;;;;6.30;1.90;;;;;;;26.84;32.74;99185.61;104667;1288;97961;-70
2022/06/12 13:09:30;;;;;;;4.60;2.00;;;;;;;26.82;32.65;99186.70;104684;1288;96558;-71
2022/06/12 13:12:47;;;;;;;3.50;1.90;;;;;;;26.80;32.78;99181.40;104860;1287;112888;-70
2022/06/12 13:15:19;;;;;;;3.10;1.60;;;;;;;26.81;32.78;99176.78;104961;1287;99121;-70
2022/06/12 13:17:53;;;;;;;3.70;1.90;;;;;;;26.83;32.90;99170.54;104826;1287;107817;-73
2022/06/12 13:20:46;;;;;;;2.40;1.70;;;;;;;26.85;32.95;99170.37;104614;1290;99226;-73
2022/06/12 13:23:38;;;;;;;4.80;2.00;;;;;;;26.89;33.12;99168.71;104734;1287;99233;-69
2022/06/12 13:26:10;;;;;;;6.10;2.20;;;;;;;26.92;33.14;99166.42;104721;1287;112853;-70
2022/06/12 13:28:41;;;;;;;2.40;1.40;;;;;;;26.93;33.11;99167.84;104864;1287;98980;-71
2022/06/12 13:31:20;;;;;;;3.70;1.60;;;;;;;26.95;33.28;99168.39;104973;1287;107774;-73
2022/06/12 13:33:55;;;;;;;4.90;1.60;;;;;;;26.95;33.17;99170.65;104856;1287;99231;-73
2022/06/12 13:36:28;;;;;;;6.30;1.90;;;;;;;26.96;33.42;99171.37;104836;1287;99153;-73
2022/06/12 13:39:05;;;;;;;2.80;1.70;;;;;;;26.97;33.31;99170.52;104844;1287;112777;-71
2022/06/12 13:41:47;;;;;;;6.20;2.10;;;;;;;26.97;33.30;99173.47;104663;1288;99406;-72
2022/06/12 13:44:32;;;;;;;3.00;1.70;;;;;;;26.98;33.46;99167.20;104880;1287;107754;-72
2022/06/12 13:47:18;;;;;;;6.20;2.00;;;;;;;26.98;33.41;99164.98;104900;1287;98830;-71
2022/06/12 13:49:52;;;;;;;6.70;2.10;;;;;;;26.94;33.33;99161.80;104749;1287;99431;-70
2022/06/12 13:52:45;;;;;;;6.30;2.10;;;;;;;26.88;33.46;99159.82;104786;1287;113224;-71
2022/06/12 13:55:23;;;;;;;4.80;2.00;;;;;;;26.86;33.42;99157.02;104789;1287;100199;-73
2022/06/12 13:57:54;;;;;;;9.70;2.50;;;;;;;26.83;33.66;99157.61;104672;1287;107501;-72
2022/06/12 14:00:29;;;;;;;2.90;1.70;;;;;;;26.83;33.48;99157.10;104669;1287;99873;-72
2022/06/12 14:03:00;;;;;;;4.40;1.80;;;;;;;26.84;33.43;99151.86;104627;1288;97301;-71
2022/06/12 14:05:34;;;;;;;6.50;2.50;;;;;;;26.84;33.42;99152.16;104724;1287;113791;-72
2022/06/12 14:08:13;;;;;;;13.60;2.20;;;;;;;26.86;33.58;99146.94;104769;1287;99257;-73
2022/06/12 14:10:44;;;;;;;4.60;2.20;;;;;;;26.90;33.67;99146.63;104705;1287;107965;-72
2022/06/12 14:13:30;;;;;;;4.90;2.00;;;;;;;26.93;33.71;99147.61;104759;1287;99350;-73
2022/06/12 14:16:15;;;;;;;4.30;1.80;;;;;;;26.94;33.75;99142.44;104869;1287;96816;-72
2022/06/12 14:18:57;;;;;;;4.30;2.40;;;;;;;26.94;33.69;99140.97;104798;1287;112369;-73
2022/06/12 14:21:30;;;;;;;7.20;2.30;;;;;;;26.96;33.77;99137.64;104853;1287;99109;-72
2022/06/12 14:24:21;;;;;;;7.90;2.00;;;;;;;26.96;33.93;99135.59;104569;1287;109391;-72
2022/06/12 14:26:54;;;;;;;;;;;;;;;26.97;33.74;99135.33;104944;1287;99308;-73
2022/06/12 14:29:34;;;;;;;4.90;2.10;;;;;;;26.95;33.94;99137.06;104853;1287;99245;-73
2022/06/12 14:32:08;;;;;;;8.30;2.40;;;;;;;26.96;33.98;99137.98;104850;1287;112802;-73
2022/06/12 14:35:03;;;;;;;4.10;2.10;;;;;;;26.95;33.92;99132.79;104949;1287;99787;-74
2022/06/12 14:37:31;;;;;;;7.60;2.00;;;;;;;26.96;33.85;99130.46;104815;1287;107624;-76
2022/06/12 14:40:16;;;;;;;7.20;2.40;;;;;;;26.99;34.03;99130.29;104834;1287;99128;-77
2022/06/12 14:42:44;;;;;;;4.70;2.30;;;;;;;27.03;34.01;99135.30;104884;1287;99325;-76
2022/06/12 14:45:13;;;;;;;5.50;2.40;;;;;;;27.08;34.12;99133.77;104892;1287;112563;-79
2022/06/12 14:47:49;;;;;;;5.40;2.20;;;;;;;27.12;34.22;99135.98;104901;1287;99262;-72
2022/06/12 14:50:19;;;;;;;6.70;2.10;;;;;;;27.13;34.19;99130.14;104850;1287;106889;-70
2022/06/12 14:52:47;;;;;;;2.70;2.00;;;;;;;27.14;34.23;99129.83;104801;1287;99307;-75
2022/06/12 14:55:16;;;;;;;5.50;1.90;;;;;;;27.13;34.27;99129.38;104854;1287;100107;-72
2022/06/12 14:57:47;;;;;;;6.30;1.90;;;;;;;27.13;34.23;99123.36;104862;1287;113772;-72
2022/06/12 15:00:24;;;;;;;2.50;1.90;;;;;;;27.15;34.20;99128.23;104806;1287;99286;-72
2022/06/12 15:02:52;;;;;;;6.40;1.80;;;;;;;27.14;34.14;99124.11;104918;1287;107887;-72
2022/06/12 15:05:27;;;;;;;5.90;1.90;;;;;;;27.13;34.21;99127.40;104867;1287;97351;-73
2022/06/12 15:07:58;;;;;;;3.80;2.10;;;;;;;27.14;34.39;99123.07;104915;1287;99147;-73
2022/06/12 15:10:26;;;;;;;2.60;1.70;;;;;;;27.14;34.30;99119.83;104881;1287;112614;-73
2022/06/12 15:12:54;;;;;;;6.60;2.00;;;;;;;27.12;34.35;99109.59;104878;1287;99271;-73
2022/06/12 15:15:26;;;;;;;3.80;2.00;;;;;;;27.12;34.42;99111.27;104865;1287;107846;-74
2022/06/12 15:17:55;;;;;;;8.40;2.20;;;;;;;27.13;34.39;99110.52;104694;1287;99268;-72
2022/06/12 15:20:23;;;;;;;6.00;2.40;;;;;;;27.13;34.45;99106.02;104863;1287;96595;-70
2022/06/12 15:22:52;;;;;;;4.20;2.20;;;;;;;27.14;34.42;99105.38;104927;1287;112751;-71
2022/06/12 15:31:14;;;;;;;7.80;2.50;;;;;;;27.17;34.44;99099.16;104887;1287;99253;-71
2022/06/12 15:33:45;;;;;;;4.90;2.30;;;;;;;27.20;34.60;99097.50;104774;1288;96668;-71
2022/06/12 15:36:16;;;;;;;5.00;2.10;;;;;;;27.21;34.48;99097.15;104703;1288;112780;-71
2022/06/12 15:38:44;;;;;;;4.00;2.40;;;;;;;27.20;34.43;99093.85;104958;1286;99274;-72
2022/06/12 15:41:18;;;;;;;4.20;2.40;;;;;;;27.17;34.36;99089.84;104871;1287;107746;-72
2022/06/12 15:43:50;;;;;;;6.20;2.20;;;;;;;27.14;34.48;99086.27;104913;1287;99277;-71
2022/06/12 15:46:18;;;;;;;5.50;2.30;;;;;;;27.16;34.63;99086.77;104881;1287;100086;-73
2022/06/12 15:48:46;;;;;;;4.40;2.30;;;;;;;27.18;34.62;99088.68;104966;1286;112745;-77
2022/06/12 15:51:21;;;;;;;8.10;2.40;;;;;;;27.18;34.72;99086.37;104923;1287;97405;-73
2022/06/12 15:53:53;;;;;;;4.80;1.80;;;;;;;27.20;34.53;99084.68;104878;1287;107813;-73
2022/06/12 15:56:26;;;;;;;4.90;2.10;;;;;;;27.20;34.70;99083.80;104837;1287;99266;-76
2022/06/12 15:58:55;;;;;;;4.50;2.30;;;;;;;27.22;34.79;99082.83;104220;1287;772010;-75
2022/06/12 16:01:29;;;;;;;4.90;2.10;;;;;;;27.23;34.87;99079.55;104910;1287;112562;-74
2022/06/12 16:04:01;;;;;;;5.50;2.10;;;;;;;27.24;34.82;99075.80;104936;1287;99309;-75
2022/06/12 16:06:29;;;;;;;4.90;2.00;;;;;;;27.22;34.75;99075.85;104901;1287;107890;-73
2022/06/12 16:08:57;;;;;;;3.70;2.00;;;;;;;27.19;34.77;99072.14;104746;1287;99262;-73
2022/06/12 16:11:24;;;;;;;7.10;2.10;;;;;;;27.15;34.62;99074.64;104928;1286;96545;-70
2022/06/12 16:13:52;;;;;;;7.40;2.00;;;;;;;27.11;34.67;99073.23;104938;1287;112760;-72
2022/06/12 16:16:20;;;;;;;3.30;2.00;;;;;;;27.07;34.50;99072.09;104945;1287;99629;-73
2022/06/12 16:18:48;;;;;;;8.40;2.30;;;;;;;27.04;34.70;99069.75;104974;1287;107804;-75
2022/06/12 16:21:16;;;;;;;6.70;2.30;;;;;;;27.01;34.64;99068.59;104716;1288;96857;-74
2022/06/12 16:23:47;;;;;;;4.60;2.70;;;;;;;27.00;34.64;99066.91;105030;1287;100948;-73
2022/06/12 16:26:15;;;;;;;7.00;2.20;;;;;;;27.00;34.86;99065.20;104986;1287;112062;-71
2022/06/12 16:28:43;;;;;;;5.50;2.60;;;;;;;26.99;34.62;99064.83;104813;1288;99337;-71
2022/06/12 16:31:11;;;;;;;9.30;2.40;;;;;;;26.96;34.91;99064.59;104971;1287;107659;-71
2022/06/12 16:33:39;;;;;;;5.30;2.20;;;;;;;26.96;34.87;99063.77;104778;1287;97929;-71
2022/06/12 16:36:09;;;;;;;6.70;2.30;;;;;;;26.97;34.95;99064.55;105480;1286;97172;-71
2022/06/12 16:38:37;;;;;;;7.60;2.50;;;;;;;26.97;34.99;99065.80;104855;1287;113433;-71
2022/06/12 16:41:05;;;;;;;6.70;2.80;;;;;;;26.95;34.99;99066.40;104922;1287;99312;-71
2022/06/12 16:43:33;;;;;;;6.30;2.40;;;;;;;26.93;34.95;99068.30;104907;1287;107773;-71
2022/06/12 16:46:01;;;;;;;5.00;2.10;;;;;;;26.90;34.86;99071.69;104930;1287;99311;-71
2022/06/12 16:48:29;;;;;;;4.90;2.60;;;;;;;26.86;34.93;99069.52;105059;1287;99192;-71
2022/06/12 16:51:13;;;;;;;4.60;2.20;;;;;;;26.83;34.96;99070.71;104884;1288;112766;-70
2022/06/12 16:53:41;;;;;;;6.70;2.40;;;;;;;26.80;35.11;99065.38;104984;1287;97816;-70
2022/06/12 16:56:09;;;;;;;4.10;2.20;;;;;;;26.78;35.04;99064.73;105035;1285;108226;-70
2022/06/12 16:58:39;;;;;;;4.00;2.20;;;;;;;26.73;35.18;99065.39;105030;1287;99253;-71
2022/06/12 17:01:06;;;;;;;9.10;2.60;;;;;;;26.70;35.05;99071.70;104860;1287;99296;-73
2022/06/12 17:03:37;;;;;;;7.50;2.40;;;;;;;26.66;35.05;99072.49;104997;1287;112573;-71
2022/06/12 17:06:10;;;;;;;11.50;2.40;;;;;;;26.64;35.11;99070.79;104912;1287;99304;-70
2022/06/12 17:08:37;;;;;;;6.80;2.40;;;;;;;26.61;35.23;99070.25;104915;1287;107699;-70
2022/06/12 17:11:05;;;;;;;9.90;2.80;;;;;;;26.57;35.28;99072.36;104912;1287;99268;-71
2022/06/12 17:13:33;;;;;;;11.00;2.50;;;;;;;26.54;35.24;99073.75;104911;1287;99255;-73
2022/06/12 17:16:04;;;;;;;6.20;2.60;;;;;;;26.49;35.29;99073.61;104889;1287;112704;-73
2022/06/12 17:21:18;;;;;;;6.60;3.10;;;;;;;26.34;35.19;99072.52;104978;1286;105863;-70
2022/06/12 17:23:46;;;;;;;15.70;3.50;;;;;;;26.28;35.28;99072.25;105049;1287;97230;-71
2022/06/12 17:26:14;;;;;;;19.10;4.00;;;;;;;26.24;35.38;99067.74;105020;1287;99513;-70
2022/06/12 17:28:42;;;;;;;59.90;5.40;;;;;;;26.21;35.27;99066.90;105004;1287;112674;-69
2022/06/12 17:31:12;;;;;;;25.30;4.00;;;;;;;26.17;35.38;99069.77;104994;1287;99312;-70
2022/06/12 17:33:40;;;;;;;28.10;3.70;;;;;;;26.13;35.50;99068.17;104939;1287;107801;-70
2022/06/12 17:36:08;;;;;;;13.80;3.20;;;;;;;26.08;35.55;99068.97;104997;1287;99398;-69
2022/06/12 17:38:36;;;;;;;7.50;2.90;;;;;;;26.04;35.58;99068.36;104767;1288;99453;-72
2022/06/12 17:41:04;;;;;;;8.30;3.30;;;;;;;25.99;35.48;99066.64;104684;1287;113468;-72
2022/06/12 17:43:32;;;;;;;14.80;3.50;;;;;;;25.95;35.56;99064.09;105095;1286;96638;-70
2022/06/12 17:46:04;;;;;;;11.60;3.10;;;;;;;25.91;35.55;99066.09;104938;1287;107767;-70
2022/06/12 17:48:39;;;;;;;8.90;3.10;;;;;;;25.86;35.61;99065.90;104847;1287;99357;-71
2022/06/12 17:51:21;;;;;;;17.60;3.50;;;;;;;25.81;35.81;99065.20;104962;1287;99344;-69
2022/06/12 17:53:49;;;;;;;10.80;3.10;;;;;;;25.76;35.75;99065.63;104886;1287;112637;-70
2022/06/12 17:56:17;;;;;;;9.60;3.00;;;;;;;25.69;35.78;99062.27;104920;1287;99344;-70
2022/06/12 17:58:45;;;;;;;14.50;4.30;;;;;;;25.64;36.04;99064.29;104833;1287;107750;-70
2022/06/12 18:01:15;;;;;;;11.90;3.30;;;;;;;25.60;35.98;99063.80;104964;1287;99391;-72
2022/06/12 18:03:43;;;;;;;13.00;3.70;;;;;;;25.56;36.13;99063.95;104975;1287;99291;-70
2022/06/12 18:06:15;;;;;;;18.50;3.70;;;;;;;25.51;36.11;99063.11;104952;1287;112794;-71
2022/06/12 18:08:43;;;;;;;12.00;3.40;;;;;;;25.47;36.31;99062.40;104872;1287;99226;-69
2022/06/12 18:11:12;;;;;;;9.30;3.50;;;;;;;25.42;36.32;99060.55;104917;1287;107806;-71
2022/06/12 18:13:45;;;;;;;12.80;3.00;;;;;;;25.36;36.25;99061.12;104941;1285;99360;-71
2022/06/12 18:19:08;;;;;;;8.90;2.80;;;;;;;25.23;36.68;99067.21;104864;1287;112813;-69
2022/06/12 18:21:42;;;;;;;6.10;3.00;;;;;;;25.14;36.87;99068.42;104959;1287;97377;-70
2022/06/12 18:24:16;;;;;;;10.40;3.50;;;;;;;25.06;36.86;99072.09;104971;1287;108837;-71
2022/06/12 18:26:45;;;;;;;10.20;3.50;;;;;;;24.96;37.05;99071.02;105280;1287;99299;-70
2022/06/12 18:29:16;;;;;;;7.60;2.90;;;;;;;24.87;37.25;99072.16;104860;1287;99817;-68
2022/06/12 18:31:45;;;;;;;8.40;3.30;;;;;;;24.79;37.37;99073.20;104949;1287;112785;-71
2022/06/12 18:34:15;;;;;;;22.10;10.30;;;;;;;24.72;37.22;99080.18;104836;1287;99261;-71
2022/06/12 18:36:45;;;;;;;14.00;5.40;;;;;;;24.62;37.41;99078.02;104815;1287;107880;-70
2022/06/12 18:39:15;;;;;;;8.60;3.60;;;;;;;24.54;37.74;99081.10;104778;1287;96578;-70
2022/06/12 18:41:43;;;;;;;7.80;3.00;;;;;;;24.45;37.56;99084.16;104868;1288;99352;-74
2022/06/12 18:44:12;;;;;;;8.50;2.70;;;;;;;24.36;37.50;99088.42;104821;1287;112744;-72
2022/06/12 18:46:42;;;;;;;8.30;3.10;;;;;;;24.27;37.88;99090.34;104917;1287;97238;-73
2022/06/12 18:49:11;;;;;;;7.00;2.80;;;;;;;24.17;38.01;99093.66;104791;1287;107572;-72
2022/06/12 18:51:40;;;;;;;8.60;3.10;;;;;;;24.06;38.03;99093.36;104777;1287;99262;-70
2022/06/12 18:54:08;;;;;;;6.50;3.00;;;;;;;23.96;38.05;99098.98;104880;1287;99262;-70
2022/06/12 18:56:38;;;;;;;11.70;3.50;;;;;;;23.85;38.32;99099.73;104886;1287;113783;-72
2022/06/12 18:59:06;;;;;;;18.40;7.90;;;;;;;23.72;38.27;99100.98;104935;1287;97478;-71
2022/06/12 19:01:34;;;;;;;18.80;7.00;;;;;;;23.59;38.45;99105.55;104718;1288;107647;-72
2022/06/12 19:04:02;;;;;;;19.00;6.50;;;;;;;23.46;38.39;99108.02;104912;1287;99370;-73
2022/06/12 19:06:30;;;;;;;14.80;5.40;;;;;;;23.35;38.36;99104.53;104979;1287;99353;-69
2022/06/12 19:08:59;;;;;;;12.20;4.30;;;;;;;23.24;38.45;99109.10;104883;1287;112836;-67
2022/06/12 19:11:43;;;;;;;9.10;4.10;;;;;;;23.16;38.64;99111.21;104870;1287;100002;-69
2022/06/12 19:14:23;;;;;;;10.30;4.20;;;;;;;23.07;38.93;99114.20;104650;1287;107475;-69
2022/06/12 19:16:54;;;;;;;10.90;4.00;;;;;;;22.98;39.04;99112.39;104728;1288;100098;-70
2022/06/12 19:19:24;;;;;;;10.20;4.10;;;;;;;22.92;38.99;99114.52;104904;1287;99279;-69
2022/06/12 19:21:53;;;;;;;9.80;3.90;;;;;;;22.87;39.30;99118.86;104846;1287;112800;-69
2022/06/12 19:24:24;;;;;;;8.60;4.00;;;;;;;22.83;39.18;99122.27;104824;1287;99266;-69
2022/06/12 19:26:53;;;;;;;10.40;4.10;;;;;;;22.78;39.26;99122.92;104605;1287;107841;-69
2022/06/12 19:29:23;;;;;;;9.00;4.30;;;;;;;22.74;39.35;99121.83;104868;1287;99467;-69
2022/06/12 19:31:51;;;;;;;15.90;4.50;;;;;;;22.70;39.52;99120.70;104769;1287;97229;-69
2022/06/12 19:34:25;;;;;;;11.40;4.30;;;;;;;22.66;39.51;99123.69;104714;1287;112847;-69
2022/06/12 19:36:58;;;;;;;10.00;4.10;;;;;;;22.62;39.70;99123.80;105083;1287;99332;-67
2022/06/12 19:39:29;;;;;;;14.60;4.70;;;;;;;22.57;39.73;99122.99;104927;1287;107782;-69
2022/06/12 19:42:01;;;;;;;11.40;4.30;;;;;;;22.50;39.80;99121.89;104908;1287;99382;-69
2022/06/12 19:44:37;;;;;;;10.40;3.70;;;;;;;22.42;40.04;99124.02;104794;1287;99373;-68
2022/06/12 19:47:10;;;;;;;8.50;3.60;;;;;;;22.35;40.05;99120.52;104950;1287;111674;-69
2022/06/12 19:49:38;;;;;;;12.20;4.20;;;;;;;22.27;40.16;99116.08;104998;1287;99268;-73
2022/06/12 19:52:20;;;;;;;15.30;4.40;;;;;;;22.17;40.23;99118.16;104928;1287;107814;-68
2022/06/12 19:54:51;;;;;;;9.40;3.80;;;;;;;22.10;40.29;99114.52;104780;1288;99712;-68